sensor_id;sensor_type;location;lat;lon;timestamp;P1;durP1;ratioP1;P2;durP2;ratioP2
19537;SDS011;9914;51.008;4.300;2022-07-12T00:00:46;11.07;;;4.77;;
19537;SDS011;9914;51.008;4.300;2022-07-12T00:03:11;7.17;;;5.27;;
19537;SDS011;9914;51.008;4.300;2022-07-12T00:05:37;5.67;;;4.80;;
19537;SDS011;9914;51.008;4.300;2022-07-12T00:08:03;5.83;;;4.90;;
19537;SDS011;9914;51.008;4.300;2022-07-12T00:10:29;7.53;;;4.97;;
19537;SDS011;9914;51.008;4.300;2022-07-12T00:12:54;5.37;;;4.80;;
19537;SDS011;9914;51.008;4.300;2022-07-12T00:15:20;6.23;;;4.90;;
19537;SDS011;9914;51.008;4.300;2022-07-12T00:17:46;5.93;;;5.13;;
19537;SDS011;9914;51.008;4.300;2022-07-12T00:20:12;6.13;;;5.03;;
19537;SDS011;9914;51.008;4.300;2022-07-12T00:22:37;6.37;;;5.23;;
19537;SDS011;9914;51.008;4.300;2022-07-12T00:25:03;5.53;;;4.90;;
19537;SDS011;9914;51.008;4.300;2022-07-12T00:27:29;5.73;;;5.00;;
19537;SDS011;9914;51.008;4.300;2022-07-12T00:29:55;6.23;;;5.20;;
19537;SDS011;9914;51.008;4.300;2022-07-12T00:32:20;6.53;;;5.33;;
19537;SDS011;9914;51.008;4.300;2022-07-12T00:34:46;6.10;;;5.50;;
19537;SDS011;9914;51.008;4.300;2022-07-12T00:37:12;5.93;;;5.33;;
19537;SDS011;9914;51.008;4.300;2022-07-12T00:39:37;5.27;;;4.83;;
19537;SDS011;9914;51.008;4.300;2022-07-12T00:42:03;5.50;;;5.00;;
19537;SDS011;9914;51.008;4.300;2022-07-12T00:44:29;5.97;;;5.33;;
19537;SDS011;9914;51.008;4.300;2022-07-12T00:46:56;6.20;;;5.60;;
19537;SDS011;9914;51.008;4.300;2022-07-12T00:49:23;5.93;;;5.40;;
19537;SDS011;9914;51.008;4.300;2022-07-12T00:51:49;8.67;;;5.87;;
19537;SDS011;9914;51.008;4.300;2022-07-12T00:54:15;7.43;;;6.23;;
19537;SDS011;9914;51.008;4.300;2022-07-12T00:56:42;6.30;;;5.70;;
19537;SDS011;9914;51.008;4.300;2022-07-12T00:59:08;6.77;;;5.93;;
19537;SDS011;9914;51.008;4.300;2022-07-12T01:01:34;8.37;;;5.93;;
19537;SDS011;9914;51.008;4.300;2022-07-12T01:04:01;5.83;;;5.23;;
19537;SDS011;9914;51.008;4.300;2022-07-12T01:06:27;6.50;;;5.53;;
19537;SDS011;9914;51.008;4.300;2022-07-12T01:08:54;13.67;;;5.30;;
19537;SDS011;9914;51.008;4.300;2022-07-12T01:11:23;7.23;;;5.30;;
19537;SDS011;9914;51.008;4.300;2022-07-12T01:13:48;6.90;;;4.93;;
19537;SDS011;9914;51.008;4.300;2022-07-12T01:16:15;6.37;;;5.03;;
19537;SDS011;9914;51.008;4.300;2022-07-12T01:18:43;8.13;;;5.23;;
19537;SDS011;9914;51.008;4.300;2022-07-12T01:21:09;8.90;;;5.57;;
19537;SDS011;9914;51.008;4.300;2022-07-12T01:23:37;7.03;;;4.50;;
19537;SDS011;9914;51.008;4.300;2022-07-12T01:26:04;6.20;;;5.53;;
19537;SDS011;9914;51.008;4.300;2022-07-12T01:28:30;5.87;;;5.37;;
19537;SDS011;9914;51.008;4.300;2022-07-12T01:30:55;8.43;;;5.40;;
19537;SDS011;9914;51.008;4.300;2022-07-12T01:33:21;6.13;;;5.40;;
19537;SDS011;9914;51.008;4.300;2022-07-12T01:35:47;6.60;;;5.60;;
19537;SDS011;9914;51.008;4.300;2022-07-12T01:38:13;6.53;;;5.70;;
19537;SDS011;9914;51.008;4.300;2022-07-12T01:40:40;5.93;;;5.33;;
19537;SDS011;9914;51.008;4.300;2022-07-12T01:43:06;6.27;;;5.77;;
19537;SDS011;9914;51.008;4.300;2022-07-12T01:45:32;6.67;;;5.47;;
19537;SDS011;9914;51.008;4.300;2022-07-12T01:47:57;5.90;;;5.40;;
19537;SDS011;9914;51.008;4.300;2022-07-12T01:50:23;8.47;;;5.50;;
19537;SDS011;9914;51.008;4.300;2022-07-12T01:52:49;7.17;;;5.33;;
19537;SDS011;9914;51.008;4.300;2022-07-12T01:55:16;10.53;;;5.40;;
19537;SDS011;9914;51.008;4.300;2022-07-12T01:57:43;5.90;;;5.40;;
19537;SDS011;9914;51.008;4.300;2022-07-12T02:00:11;8.27;;;5.30;;
19537;SDS011;9914;51.008;4.300;2022-07-12T02:02:37;6.20;;;5.70;;
19537;SDS011;9914;51.008;4.300;2022-07-12T02:05:04;10.90;;;5.10;;
19537;SDS011;9914;51.008;4.300;2022-07-12T02:07:30;6.23;;;5.37;;
19537;SDS011;9914;51.008;4.300;2022-07-12T02:09:56;6.20;;;5.60;;
19537;SDS011;9914;51.008;4.300;2022-07-12T02:12:22;6.63;;;5.90;;
19537;SDS011;9914;51.008;4.300;2022-07-12T02:14:48;6.57;;;5.93;;
19537;SDS011;9914;51.008;4.300;2022-07-12T02:17:15;10.80;;;5.87;;
19537;SDS011;9914;51.008;4.300;2022-07-12T02:19:41;7.17;;;5.83;;
19537;SDS011;9914;51.008;4.300;2022-07-12T02:22:07;6.20;;;5.50;;
19537;SDS011;9914;51.008;4.300;2022-07-12T02:24:33;6.40;;;5.80;;
19537;SDS011;9914;51.008;4.300;2022-07-12T02:26:59;6.40;;;5.80;;
19537;SDS011;9914;51.008;4.300;2022-07-12T02:29:24;6.27;;;5.67;;
19537;SDS011;9914;51.008;4.300;2022-07-12T02:31:50;6.67;;;5.63;;
19537;SDS011;9914;51.008;4.300;2022-07-12T02:34:15;5.80;;;5.30;;
19537;SDS011;9914;51.008;4.300;2022-07-12T02:36:41;8.60;;;5.40;;
19537;SDS011;9914;51.008;4.300;2022-07-12T02:39:07;6.33;;;5.80;;
19537;SDS011;9914;51.008;4.300;2022-07-12T02:41:32;6.60;;;6.00;;
19537;SDS011;9914;51.008;4.300;2022-07-12T02:43:58;6.53;;;5.83;;
19537;SDS011;9914;51.008;4.300;2022-07-12T02:46:24;6.60;;;6.10;;
19537;SDS011;9914;51.008;4.300;2022-07-12T02:48:50;8.33;;;6.30;;
19537;SDS011;9914;51.008;4.300;2022-07-12T02:51:17;6.50;;;5.83;;
19537;SDS011;9914;51.008;4.300;2022-07-12T02:53:43;7.17;;;5.97;;
19537;SDS011;9914;51.008;4.300;2022-07-12T02:56:09;7.37;;;5.50;;
19537;SDS011;9914;51.008;4.300;2022-07-12T02:58:35;6.53;;;5.93;;
19537;SDS011;9914;51.008;4.300;2022-07-12T03:01:01;8.23;;;5.63;;
19537;SDS011;9914;51.008;4.300;2022-07-12T03:03:27;6.10;;;5.53;;
19537;SDS011;9914;51.008;4.300;2022-07-12T03:05:53;6.27;;;5.43;;
19537;SDS011;9914;51.008;4.300;2022-07-12T03:08:18;7.10;;;5.47;;
19537;SDS011;9914;51.008;4.300;2022-07-12T03:10:45;6.80;;;5.37;;
19537;SDS011;9914;51.008;4.300;2022-07-12T03:13:11;10.50;;;6.07;;
19537;SDS011;9914;51.008;4.300;2022-07-12T03:15:36;10.97;;;5.93;;
19537;SDS011;9914;51.008;4.300;2022-07-12T03:18:02;7.80;;;5.43;;
19537;SDS011;9914;51.008;4.300;2022-07-12T03:20:29;6.27;;;5.43;;
19537;SDS011;9914;51.008;4.300;2022-07-12T03:22:55;5.30;;;4.67;;
19537;SDS011;9914;51.008;4.300;2022-07-12T03:25:21;5.67;;;4.93;;
19537;SDS011;9914;51.008;4.300;2022-07-12T03:27:47;7.33;;;5.10;;
19537;SDS011;9914;51.008;4.300;2022-07-12T03:30:13;6.60;;;6.00;;
19537;SDS011;9914;51.008;4.300;2022-07-12T03:32:39;6.10;;;5.50;;
19537;SDS011;9914;51.008;4.300;2022-07-12T03:35:05;7.17;;;5.13;;
19537;SDS011;9914;51.008;4.300;2022-07-12T03:40:07;8.33;;;5.40;;
19537;SDS011;9914;51.008;4.300;2022-07-12T03:42:33;7.17;;;5.60;;
19537;SDS011;9914;51.008;4.300;2022-07-12T03:44:59;6.83;;;5.90;;
19537;SDS011;9914;51.008;4.300;2022-07-12T03:47:25;8.07;;;5.47;;
19537;SDS011;9914;51.008;4.300;2022-07-12T03:49:51;6.53;;;5.90;;
19537;SDS011;9914;51.008;4.300;2022-07-12T03:52:17;7.27;;;5.53;;
19537;SDS011;9914;51.008;4.300;2022-07-12T03:54:42;8.93;;;5.50;;
19537;SDS011;9914;51.008;4.300;2022-07-12T03:57:08;8.20;;;5.67;;
19537;SDS011;9914;51.008;4.300;2022-07-12T03:59:40;7.77;;;5.37;;
19537;SDS011;9914;51.008;4.300;2022-07-12T04:02:06;7.47;;;5.67;;
19537;SDS011;9914;51.008;4.300;2022-07-12T04:04:32;7.63;;;5.40;;
19537;SDS011;9914;51.008;4.300;2022-07-12T04:06:57;7.20;;;5.63;;
19537;SDS011;9914;51.008;4.300;2022-07-12T04:09:23;10.00;;;6.53;;
19537;SDS011;9914;51.008;4.300;2022-07-12T04:11:48;7.47;;;6.60;;
19537;SDS011;9914;51.008;4.300;2022-07-12T04:14:14;7.30;;;6.60;;
19537;SDS011;9914;51.008;4.300;2022-07-12T04:16:40;9.53;;;6.83;;
19537;SDS011;9914;51.008;4.300;2022-07-12T04:19:06;9.27;;;6.00;;
19537;SDS011;9914;51.008;4.300;2022-07-12T04:21:34;6.73;;;6.03;;
19537;SDS011;9914;51.008;4.300;2022-07-12T04:24:03;9.73;;;6.43;;
19537;SDS011;9914;51.008;4.300;2022-07-12T04:26:29;8.83;;;5.50;;
19537;SDS011;9914;51.008;4.300;2022-07-12T04:28:55;10.33;;;5.73;;
19537;SDS011;9914;51.008;4.300;2022-07-12T04:31:20;6.20;;;5.60;;
19537;SDS011;9914;51.008;4.300;2022-07-12T04:33:46;6.87;;;5.67;;
19537;SDS011;9914;51.008;4.300;2022-07-12T04:36:12;6.20;;;5.60;;
19537;SDS011;9914;51.008;4.300;2022-07-12T04:38:37;7.20;;;6.50;;
19537;SDS011;9914;51.008;4.300;2022-07-12T04:41:03;10.70;;;5.60;;
19537;SDS011;9914;51.008;4.300;2022-07-12T04:43:30;8.43;;;6.17;;
19537;SDS011;9914;51.008;4.300;2022-07-12T04:45:55;6.43;;;5.73;;
19537;SDS011;9914;51.008;4.300;2022-07-12T04:48:21;8.10;;;5.53;;
19537;SDS011;9914;51.008;4.300;2022-07-12T04:50:46;8.23;;;5.93;;
19537;SDS011;9914;51.008;4.300;2022-07-12T04:53:12;6.10;;;5.60;;
19537;SDS011;9914;51.008;4.300;2022-07-12T04:55:38;10.13;;;6.40;;
19537;SDS011;9914;51.008;4.300;2022-07-12T04:58:03;10.63;;;6.63;;
19537;SDS011;9914;51.008;4.300;2022-07-12T05:00:29;6.53;;;5.93;;
19537;SDS011;9914;51.008;4.300;2022-07-12T05:02:55;8.27;;;6.83;;
19537;SDS011;9914;51.008;4.300;2022-07-12T05:05:21;9.23;;;6.50;;
19537;SDS011;9914;51.008;4.300;2022-07-12T05:07:46;8.97;;;5.90;;
19537;SDS011;9914;51.008;4.300;2022-07-12T05:10:12;7.40;;;5.90;;
19537;SDS011;9914;51.008;4.300;2022-07-12T05:12:38;7.23;;;6.53;;
19537;SDS011;9914;51.008;4.300;2022-07-12T05:15:04;10.37;;;6.70;;
19537;SDS011;9914;51.008;4.300;2022-07-12T05:17:31;10.37;;;7.00;;
19537;SDS011;9914;51.008;4.300;2022-07-12T05:19:57;9.60;;;6.73;;
19537;SDS011;9914;51.008;4.300;2022-07-12T05:22:23;10.83;;;7.03;;
19537;SDS011;9914;51.008;4.300;2022-07-12T05:24:48;10.63;;;7.13;;
19537;SDS011;9914;51.008;4.300;2022-07-12T05:27:14;8.73;;;6.70;;
19537;SDS011;9914;51.008;4.300;2022-07-12T05:29:40;11.80;;;7.63;;
19537;SDS011;9914;51.008;4.300;2022-07-12T05:32:06;12.93;;;7.20;;
19537;SDS011;9914;51.008;4.300;2022-07-12T05:34:32;10.33;;;7.23;;
19537;SDS011;9914;51.008;4.300;2022-07-12T05:36:58;7.60;;;6.77;;
19537;SDS011;9914;51.008;4.300;2022-07-12T05:39:23;8.07;;;6.90;;
19537;SDS011;9914;51.008;4.300;2022-07-12T05:41:49;8.87;;;7.97;;
19537;SDS011;9914;51.008;4.300;2022-07-12T05:44:15;8.23;;;7.40;;
19537;SDS011;9914;51.008;4.300;2022-07-12T05:46:42;10.20;;;7.10;;
19537;SDS011;9914;51.008;4.300;2022-07-12T05:49:08;7.50;;;6.70;;
19537;SDS011;9914;51.008;4.300;2022-07-12T05:51:34;9.87;;;7.10;;
19537;SDS011;9914;51.008;4.300;2022-07-12T05:54:18;10.17;;;7.10;;
19537;SDS011;9914;51.008;4.300;2022-07-12T05:56:43;8.43;;;6.70;;
19537;SDS011;9914;51.008;4.300;2022-07-12T05:59:09;9.57;;;6.97;;
19537;SDS011;9914;51.008;4.300;2022-07-12T06:01:35;10.80;;;6.87;;
19537;SDS011;9914;51.008;4.300;2022-07-12T06:04:00;8.17;;;6.73;;
19537;SDS011;9914;51.008;4.300;2022-07-12T06:06:26;8.70;;;6.83;;
19537;SDS011;9914;51.008;4.300;2022-07-12T06:08:52;7.37;;;6.70;;
19537;SDS011;9914;51.008;4.300;2022-07-12T06:11:17;7.20;;;6.47;;
19537;SDS011;9914;51.008;4.300;2022-07-12T06:13:43;12.50;;;7.50;;
19537;SDS011;9914;51.008;4.300;2022-07-12T06:16:09;9.37;;;6.23;;
19537;SDS011;9914;51.008;4.300;2022-07-12T06:18:35;8.23;;;6.50;;
19537;SDS011;9914;51.008;4.300;2022-07-12T06:21:01;9.47;;;6.90;;
19537;SDS011;9914;51.008;4.300;2022-07-12T06:23:27;8.73;;;6.90;;
19537;SDS011;9914;51.008;4.300;2022-07-12T06:25:53;7.10;;;6.40;;
19537;SDS011;9914;51.008;4.300;2022-07-12T06:28:18;8.30;;;6.67;;
19537;SDS011;9914;51.008;4.300;2022-07-12T06:30:44;8.97;;;7.07;;
19537;SDS011;9914;51.008;4.300;2022-07-12T06:33:10;9.27;;;7.57;;
19537;SDS011;9914;51.008;4.300;2022-07-12T06:35:35;9.87;;;7.43;;
19537;SDS011;9914;51.008;4.300;2022-07-12T06:38:01;8.90;;;8.00;;
19537;SDS011;9914;51.008;4.300;2022-07-12T06:40:27;8.93;;;7.63;;
19537;SDS011;9914;51.008;4.300;2022-07-12T06:42:53;8.00;;;7.10;;
19537;SDS011;9914;51.008;4.300;2022-07-12T06:45:18;7.67;;;6.63;;
19537;SDS011;9914;51.008;4.300;2022-07-12T06:47:44;7.83;;;6.80;;
19537;SDS011;9914;51.008;4.300;2022-07-12T06:50:10;9.77;;;6.43;;
19537;SDS011;9914;51.008;4.300;2022-07-12T06:52:36;11.07;;;8.43;;
19537;SDS011;9914;51.008;4.300;2022-07-12T06:55:01;8.73;;;7.47;;
19537;SDS011;9914;51.008;4.300;2022-07-12T06:57:27;10.97;;;8.27;;
19537;SDS011;9914;51.008;4.300;2022-07-12T06:59:55;13.10;;;8.17;;
19537;SDS011;9914;51.008;4.300;2022-07-12T07:02:21;8.33;;;7.53;;
19537;SDS011;9914;51.008;4.300;2022-07-12T07:04:47;9.87;;;8.43;;
19537;SDS011;9914;51.008;4.300;2022-07-12T07:07:13;10.63;;;8.37;;
19537;SDS011;9914;51.008;4.300;2022-07-12T07:09:39;9.60;;;7.87;;
19537;SDS011;9914;51.008;4.300;2022-07-12T07:12:04;11.83;;;8.63;;
19537;SDS011;9914;51.008;4.300;2022-07-12T07:14:30;10.73;;;8.97;;
19537;SDS011;9914;51.008;4.300;2022-07-12T07:16:56;11.90;;;8.70;;
19537;SDS011;9914;51.008;4.300;2022-07-12T07:19:21;9.63;;;8.73;;
19537;SDS011;9914;51.008;4.300;2022-07-12T07:21:51;9.73;;;8.33;;
19537;SDS011;9914;51.008;4.300;2022-07-12T07:24:19;11.07;;;9.10;;
19537;SDS011;9914;51.008;4.300;2022-07-12T07:26:44;9.50;;;7.70;;
19537;SDS011;9914;51.008;4.300;2022-07-12T07:29:10;12.77;;;8.97;;
19537;SDS011;9914;51.008;4.300;2022-07-12T07:31:54;11.67;;;8.97;;
19537;SDS011;9914;51.008;4.300;2022-07-12T07:34:19;9.27;;;8.03;;
19537;SDS011;9914;51.008;4.300;2022-07-12T07:36:45;10.47;;;8.30;;
19537;SDS011;9914;51.008;4.300;2022-07-12T07:39:11;12.30;;;8.53;;
19537;SDS011;9914;51.008;4.300;2022-07-12T07:41:37;12.00;;;7.77;;
19537;SDS011;9914;51.008;4.300;2022-07-12T07:44:03;9.50;;;8.10;;
19537;SDS011;9914;51.008;4.300;2022-07-12T07:46:28;9.73;;;7.27;;
19537;SDS011;9914;51.008;4.300;2022-07-12T07:48:54;8.07;;;7.20;;
19537;SDS011;9914;51.008;4.300;2022-07-12T07:51:20;17.27;;;9.03;;
19537;SDS011;9914;51.008;4.300;2022-07-12T07:53:45;11.00;;;7.63;;
19537;SDS011;9914;51.008;4.300;2022-07-12T07:56:11;8.87;;;7.00;;
19537;SDS011;9914;51.008;4.300;2022-07-12T07:58:37;8.73;;;6.77;;
19537;SDS011;9914;51.008;4.300;2022-07-12T08:01:02;7.67;;;6.33;;
19537;SDS011;9914;51.008;4.300;2022-07-12T08:03:28;7.20;;;6.60;;
19537;SDS011;9914;51.008;4.300;2022-07-12T08:05:53;6.97;;;5.63;;
19537;SDS011;9914;51.008;4.300;2022-07-12T08:08:22;11.03;;;7.13;;
19537;SDS011;9914;51.008;4.300;2022-07-12T08:10:49;9.90;;;7.30;;
19537;SDS011;9914;51.008;4.300;2022-07-12T08:13:15;9.20;;;5.77;;
19537;SDS011;9914;51.008;4.300;2022-07-12T08:15:41;10.13;;;6.20;;
19537;SDS011;9914;51.008;4.300;2022-07-12T08:18:06;7.13;;;6.43;;
19537;SDS011;9914;51.008;4.300;2022-07-12T08:20:32;6.70;;;6.10;;
19537;SDS011;9914;51.008;4.300;2022-07-12T08:22:58;7.60;;;6.73;;
19537;SDS011;9914;51.008;4.300;2022-07-12T08:25:24;7.07;;;6.00;;
19537;SDS011;9914;51.008;4.300;2022-07-12T08:27:49;8.37;;;6.40;;
19537;SDS011;9914;51.008;4.300;2022-07-12T08:30:15;7.90;;;6.53;;
19537;SDS011;9914;51.008;4.300;2022-07-12T08:32:44;7.03;;;6.43;;
19537;SDS011;9914;51.008;4.300;2022-07-12T08:35:10;6.77;;;6.00;;
19537;SDS011;9914;51.008;4.300;2022-07-12T08:37:37;6.80;;;6.23;;
19537;SDS011;9914;51.008;4.300;2022-07-12T08:40:03;6.90;;;6.20;;
19537;SDS011;9914;51.008;4.300;2022-07-12T08:42:30;8.33;;;6.67;;
19537;SDS011;9914;51.008;4.300;2022-07-12T08:44:57;6.43;;;5.87;;
19537;SDS011;9914;51.008;4.300;2022-07-12T08:47:23;9.50;;;6.70;;
19537;SDS011;9914;51.008;4.300;2022-07-12T08:52:36;7.17;;;6.33;;
19537;SDS011;9914;51.008;4.300;2022-07-12T08:55:27;6.90;;;5.77;;
19537;SDS011;9914;51.008;4.300;2022-07-12T08:57:54;6.60;;;5.80;;
19537;SDS011;9914;51.008;4.300;2022-07-12T09:00:20;7.33;;;5.37;;
19537;SDS011;9914;51.008;4.300;2022-07-12T09:02:51;5.60;;;5.10;;
19537;SDS011;9914;51.008;4.300;2022-07-12T09:05:35;7.87;;;6.00;;
19537;SDS011;9914;51.008;4.300;2022-07-12T09:08:02;7.63;;;5.77;;
19537;SDS011;9914;51.008;4.300;2022-07-12T09:10:51;6.20;;;5.70;;
19537;SDS011;9914;51.008;4.300;2022-07-12T09:13:19;6.47;;;5.37;;
19537;SDS011;9914;51.008;4.300;2022-07-12T09:15:47;6.80;;;6.10;;
19537;SDS011;9914;51.008;4.300;2022-07-12T09:18:13;7.97;;;5.90;;
19537;SDS011;9914;51.008;4.300;2022-07-12T09:20:41;5.83;;;5.23;;
19537;SDS011;9914;51.008;4.300;2022-07-12T09:23:11;6.33;;;5.73;;
19537;SDS011;9914;51.008;4.300;2022-07-12T09:25:37;6.17;;;5.60;;
19537;SDS011;9914;51.008;4.300;2022-07-12T09:28:05;6.80;;;6.10;;
19537;SDS011;9914;51.008;4.300;2022-07-12T09:30:31;9.63;;;5.37;;
19537;SDS011;9914;51.008;4.300;2022-07-12T09:32:58;7.37;;;5.50;;
19537;SDS011;9914;51.008;4.300;2022-07-12T09:35:43;8.07;;;6.13;;
19537;SDS011;9914;51.008;4.300;2022-07-12T09:41:10;5.57;;;5.17;;
19537;SDS011;9914;51.008;4.300;2022-07-12T09:43:42;7.30;;;5.30;;
19537;SDS011;9914;51.008;4.300;2022-07-12T09:46:10;6.07;;;5.40;;
19537;SDS011;9914;51.008;4.300;2022-07-12T09:48:36;5.63;;;5.10;;
19537;SDS011;9914;51.008;4.300;2022-07-12T09:51:03;5.47;;;5.03;;
19537;SDS011;9914;51.008;4.300;2022-07-12T09:53:33;5.93;;;5.33;;
19537;SDS011;9914;51.008;4.300;2022-07-12T09:56:05;4.93;;;4.43;;
19537;SDS011;9914;51.008;4.300;2022-07-12T09:58:53;5.83;;;5.33;;
19537;SDS011;9914;51.008;4.300;2022-07-12T10:01:21;6.20;;;4.60;;
19537;SDS011;9914;51.008;4.300;2022-07-12T10:03:48;5.33;;;4.33;;
19537;SDS011;9914;51.008;4.300;2022-07-12T10:06:25;6.40;;;5.07;;
19537;SDS011;9914;51.008;4.300;2022-07-12T10:08:51;5.50;;;4.73;;
19537;SDS011;9914;51.008;4.300;2022-07-12T10:11:19;5.17;;;4.50;;
19537;SDS011;9914;51.008;4.300;2022-07-12T10:13:45;6.33;;;4.93;;
19537;SDS011;9914;51.008;4.300;2022-07-12T10:16:12;5.37;;;4.30;;
19537;SDS011;9914;51.008;4.300;2022-07-12T10:18:39;6.67;;;4.93;;
19537;SDS011;9914;51.008;4.300;2022-07-12T10:21:18;5.40;;;4.90;;
19537;SDS011;9914;51.008;4.300;2022-07-12T10:23:44;5.93;;;5.10;;
19537;SDS011;9914;51.008;4.300;2022-07-12T10:28:55;5.07;;;4.63;;
19537;SDS011;9914;51.008;4.300;2022-07-12T10:31:22;4.53;;;4.07;;
19537;SDS011;9914;51.008;4.300;2022-07-12T10:33:58;5.10;;;4.30;;
19537;SDS011;9914;51.008;4.300;2022-07-12T10:39:19;3.93;;;3.63;;
19537;SDS011;9914;51.008;4.300;2022-07-12T10:42:10;4.37;;;3.60;;
19537;SDS011;9914;51.008;4.300;2022-07-12T10:44:38;4.13;;;3.73;;
19537;SDS011;9914;51.008;4.300;2022-07-12T10:47:05;4.33;;;3.93;;
19537;SDS011;9914;51.008;4.300;2022-07-12T10:49:32;6.53;;;4.07;;
19537;SDS011;9914;51.008;4.300;2022-07-12T10:57:06;4.50;;;3.87;;
19537;SDS011;9914;51.008;4.300;2022-07-12T10:59:33;5.57;;;3.50;;
19537;SDS011;9914;51.008;4.300;2022-07-12T11:02:00;5.07;;;3.90;;
19537;SDS011;9914;51.008;4.300;2022-07-12T11:04:26;6.10;;;4.00;;
19537;SDS011;9914;51.008;4.300;2022-07-12T11:06:52;3.80;;;3.40;;
19537;SDS011;9914;51.008;4.300;2022-07-12T11:09:23;4.60;;;4.10;;
19537;SDS011;9914;51.008;4.300;2022-07-12T11:11:50;3.97;;;3.50;;
19537;SDS011;9914;51.008;4.300;2022-07-12T11:14:20;4.47;;;3.10;;
19537;SDS011;9914;51.008;4.300;2022-07-12T11:16:47;5.47;;;3.37;;
19537;SDS011;9914;51.008;4.300;2022-07-12T11:19:14;4.00;;;3.53;;
19537;SDS011;9914;51.008;4.300;2022-07-12T11:21:44;4.10;;;3.80;;
19537;SDS011;9914;51.008;4.300;2022-07-12T11:24:16;4.83;;;4.00;;
19537;SDS011;9914;51.008;4.300;2022-07-12T11:26:46;12.73;;;5.03;;
19537;SDS011;9914;51.008;4.300;2022-07-12T11:29:13;6.70;;;3.93;;
19537;SDS011;9914;51.008;4.300;2022-07-12T11:31:38;4.13;;;3.63;;
19537;SDS011;9914;51.008;4.300;2022-07-12T11:34:04;4.90;;;3.90;;
19537;SDS011;9914;51.008;4.300;2022-07-12T11:36:30;3.63;;;3.33;;
19537;SDS011;9914;51.008;4.300;2022-07-12T11:38:57;6.93;;;3.67;;
19537;SDS011;9914;51.008;4.300;2022-07-12T11:41:23;4.90;;;3.73;;
19537;SDS011;9914;51.008;4.300;2022-07-12T11:43:49;7.23;;;3.93;;
19537;SDS011;9914;51.008;4.300;2022-07-12T11:46:15;5.63;;;4.03;;
19537;SDS011;9914;51.008;4.300;2022-07-12T11:48:41;6.03;;;3.90;;
19537;SDS011;9914;51.008;4.300;2022-07-12T11:51:09;4.13;;;3.67;;
19537;SDS011;9914;51.008;4.300;2022-07-12T11:53:36;4.30;;;3.80;;
19537;SDS011;9914;51.008;4.300;2022-07-12T11:56:03;5.40;;;4.57;;
19537;SDS011;9914;51.008;4.300;2022-07-12T11:58:33;4.90;;;4.40;;
19537;SDS011;9914;51.008;4.300;2022-07-12T12:01:03;6.00;;;4.30;;
19537;SDS011;9914;51.008;4.300;2022-07-12T12:03:29;8.20;;;4.23;;
19537;SDS011;9914;51.008;4.300;2022-07-12T12:05:57;5.87;;;4.37;;
19537;SDS011;9914;51.008;4.300;2022-07-12T12:08:23;5.03;;;4.63;;
19537;SDS011;9914;51.008;4.300;2022-07-12T12:10:57;4.70;;;4.23;;
19537;SDS011;9914;51.008;4.300;2022-07-12T12:13:25;4.90;;;4.07;;
19537;SDS011;9914;51.008;4.300;2022-07-12T12:15:52;4.23;;;3.83;;
19537;SDS011;9914;51.008;4.300;2022-07-12T12:18:29;5.10;;;4.60;;
19537;SDS011;9914;51.008;4.300;2022-07-12T12:21:05;5.37;;;4.83;;
19537;SDS011;9914;51.008;4.300;2022-07-12T12:23:34;5.37;;;4.30;;
19537;SDS011;9914;51.008;4.300;2022-07-12T12:26:08;5.07;;;4.57;;
19537;SDS011;9914;51.008;4.300;2022-07-12T12:28:41;6.17;;;4.67;;
19537;SDS011;9914;51.008;4.300;2022-07-12T12:31:08;5.73;;;4.63;;
19537;SDS011;9914;51.008;4.300;2022-07-12T12:33:38;5.27;;;4.50;;
19537;SDS011;9914;51.008;4.300;2022-07-12T12:36:16;5.30;;;4.80;;
19537;SDS011;9914;51.008;4.300;2022-07-12T12:38:44;5.13;;;4.60;;
19537;SDS011;9914;51.008;4.300;2022-07-12T12:41:10;5.43;;;4.90;;
19537;SDS011;9914;51.008;4.300;2022-07-12T12:43:37;5.93;;;5.13;;
19537;SDS011;9914;51.008;4.300;2022-07-12T12:46:03;5.73;;;5.03;;
19537;SDS011;9914;51.008;4.300;2022-07-12T12:48:29;5.33;;;4.83;;
19537;SDS011;9914;51.008;4.300;2022-07-12T12:51:09;6.83;;;4.73;;
19537;SDS011;9914;51.008;4.300;2022-07-12T12:53:36;4.90;;;4.40;;
19537;SDS011;9914;51.008;4.300;2022-07-12T12:56:08;4.93;;;4.43;;
19537;SDS011;9914;51.008;4.300;2022-07-12T12:58:42;5.30;;;4.43;;
19537;SDS011;9914;51.008;4.300;2022-07-12T13:01:08;6.00;;;4.40;;
19537;SDS011;9914;51.008;4.300;2022-07-12T13:03:34;4.57;;;4.20;;
19537;SDS011;9914;51.008;4.300;2022-07-12T13:06:00;5.07;;;4.00;;
19537;SDS011;9914;51.008;4.300;2022-07-12T13:08:27;5.47;;;4.60;;
19537;SDS011;9914;51.008;4.300;2022-07-12T13:10:53;5.13;;;4.13;;
19537;SDS011;9914;51.008;4.300;2022-07-12T13:13:38;4.17;;;3.77;;
19537;SDS011;9914;51.008;4.300;2022-07-12T13:16:04;6.10;;;3.93;;
19537;SDS011;9914;51.008;4.300;2022-07-12T13:18:30;5.73;;;4.13;;
19537;SDS011;9914;51.008;4.300;2022-07-12T13:20:56;4.70;;;4.10;;
19537;SDS011;9914;51.008;4.300;2022-07-12T13:23:22;6.33;;;4.53;;
19537;SDS011;9914;51.008;4.300;2022-07-12T13:25:48;5.33;;;4.07;;
19537;SDS011;9914;51.008;4.300;2022-07-12T13:28:14;8.27;;;4.63;;
19537;SDS011;9914;51.008;4.300;2022-07-12T13:30:39;3.90;;;3.60;;
19537;SDS011;9914;51.008;4.300;2022-07-12T13:33:05;7.43;;;4.10;;
19537;SDS011;9914;51.008;4.300;2022-07-12T13:35:31;5.03;;;4.20;;
19537;SDS011;9914;51.008;4.300;2022-07-12T13:37:56;4.63;;;4.23;;
19537;SDS011;9914;51.008;4.300;2022-07-12T13:40:22;4.43;;;3.70;;
19537;SDS011;9914;51.008;4.300;2022-07-12T13:42:49;4.23;;;3.83;;
19537;SDS011;9914;51.008;4.300;2022-07-12T13:45:16;5.27;;;3.90;;
19537;SDS011;9914;51.008;4.300;2022-07-12T13:47:44;5.37;;;3.97;;
19537;SDS011;9914;51.008;4.300;2022-07-12T13:50:12;5.63;;;3.63;;
19537;SDS011;9914;51.008;4.300;2022-07-12T13:52:39;4.77;;;4.37;;
19537;SDS011;9914;51.008;4.300;2022-07-12T13:55:06;3.67;;;3.37;;
19537;SDS011;9914;51.008;4.300;2022-07-12T13:57:34;5.43;;;3.53;;
19537;SDS011;9914;51.008;4.300;2022-07-12T14:00:01;6.43;;;3.20;;
19537;SDS011;9914;51.008;4.300;2022-07-12T14:02:28;6.37;;;3.60;;
19537;SDS011;9914;51.008;4.300;2022-07-12T14:04:54;3.80;;;3.10;;
19537;SDS011;9914;51.008;4.300;2022-07-12T14:07:19;4.10;;;3.43;;
19537;SDS011;9914;51.008;4.300;2022-07-12T14:09:45;11.70;;;4.40;;
19537;SDS011;9914;51.008;4.300;2022-07-12T14:12:11;3.53;;;3.23;;
19537;SDS011;9914;51.008;4.300;2022-07-12T14:14:36;3.67;;;3.20;;
19537;SDS011;9914;51.008;4.300;2022-07-12T14:17:21;3.40;;;3.10;;
19537;SDS011;9914;51.008;4.300;2022-07-12T14:19:47;3.77;;;3.07;;
19537;SDS011;9914;51.008;4.300;2022-07-12T14:22:13;3.63;;;2.80;;
19537;SDS011;9914;51.008;4.300;2022-07-12T14:24:38;4.27;;;3.03;;
19537;SDS011;9914;51.008;4.300;2022-07-12T14:27:04;6.07;;;3.30;;
19537;SDS011;9914;51.008;4.300;2022-07-12T14:29:31;3.57;;;3.13;;
19537;SDS011;9914;51.008;4.300;2022-07-12T14:31:57;3.17;;;2.87;;
19537;SDS011;9914;51.008;4.300;2022-07-12T14:34:23;3.50;;;2.33;;
19537;SDS011;9914;51.008;4.300;2022-07-12T14:36:49;2.83;;;2.63;;
19537;SDS011;9914;51.008;4.300;2022-07-12T14:39:14;2.93;;;2.63;;
19537;SDS011;9914;51.008;4.300;2022-07-12T14:41:40;3.30;;;2.63;;
19537;SDS011;9914;51.008;4.300;2022-07-12T14:44:06;3.77;;;2.10;;
19537;SDS011;9914;51.008;4.300;2022-07-12T14:46:34;3.00;;;2.30;;
19537;SDS011;9914;51.008;4.300;2022-07-12T14:49:00;3.30;;;2.27;;
19537;SDS011;9914;51.008;4.300;2022-07-12T14:51:25;2.77;;;1.93;;
19537;SDS011;9914;51.008;4.300;2022-07-12T14:53:51;2.43;;;1.90;;
19537;SDS011;9914;51.008;4.300;2022-07-12T14:56:20;2.10;;;1.90;;
19537;SDS011;9914;51.008;4.300;2022-07-12T14:58:46;2.17;;;1.90;;
19537;SDS011;9914;51.008;4.300;2022-07-12T15:01:11;2.93;;;2.03;;
19537;SDS011;9914;51.008;4.300;2022-07-12T15:03:37;6.03;;;2.70;;
19537;SDS011;9914;51.008;4.300;2022-07-12T15:06:03;2.10;;;1.87;;
19537;SDS011;9914;51.008;4.300;2022-07-12T15:08:29;2.40;;;1.90;;
19537;SDS011;9914;51.008;4.300;2022-07-12T15:10:55;2.50;;;2.30;;
19537;SDS011;9914;51.008;4.300;2022-07-12T15:13:22;3.05;;;2.65;;
19537;SDS011;9914;51.008;4.300;2022-07-12T15:15:50;3.88;;;2.30;;
19537;SDS011;9914;51.008;4.300;2022-07-12T15:18:16;5.43;;;1.88;;